createdAt,value
2023-01-08T00:00:03.589Z,80.69
2023-01-08T00:01:03.572Z,80.38
2023-01-08T00:02:03.561Z,80.38
2023-01-08T00:03:03.658Z,80.38
2023-01-08T00:04:03.638Z,80.38
2023-01-08T00:05:03.535Z,80.07
2023-01-08T00:06:03.630Z,79.83
2023-01-08T00:07:03.509Z,79.83
2023-01-08T00:08:04.244Z,80.38
2023-01-08T00:09:03.516Z,80.65
2023-01-08T00:10:03.509Z,80.45
2023-01-08T00:11:03.501Z,80.45
2023-01-08T00:12:03.475Z,80.28
2023-01-08T00:13:03.478Z,80.76
2023-01-08T00:14:03.759Z,80.65
2023-01-08T00:15:03.456Z,81.06
2023-01-08T00:16:03.470Z,80.55
2023-01-08T00:17:03.434Z,80.96
2023-01-08T00:18:05.436Z,80.55
2023-01-08T00:19:03.465Z,81.06
2023-01-08T00:20:03.414Z,81.48
2023-01-08T00:21:03.399Z,81.16
2023-01-08T00:22:03.506Z,81.51
2023-01-08T00:23:03.383Z,81.71
2023-01-08T00:24:03.392Z,81.82
2023-01-08T00:25:03.371Z,81.57
2023-01-08T00:26:52.959Z,82.33
2023-01-08T00:27:52.952Z,82.43
2023-01-08T00:28:52.946Z,82.84
2023-01-08T00:29:52.944Z,82.75
2023-01-08T00:30:54.060Z,82.54
2023-01-08T00:31:54.033Z,82.43
2023-01-08T00:32:54.009Z,82.54
2023-01-08T00:33:54.010Z,82.60
2023-01-08T00:34:53.998Z,82.95
2023-01-08T00:35:53.987Z,82.95
2023-01-08T00:36:53.986Z,82.23
2023-01-08T00:37:53.970Z,82.54
2023-01-08T00:38:53.976Z,82.33
2023-01-08T00:39:53.967Z,82.33
2023-01-08T00:40:53.951Z,82.64
2023-01-08T00:41:53.928Z,82.29
2023-01-08T00:42:53.922Z,81.99
2023-01-08T00:43:53.918Z,82.09
2023-01-08T00:44:53.914Z,82.19
2023-01-08T00:45:54.158Z,81.88
2023-01-08T00:46:53.895Z,82.19
2023-01-08T00:47:54.827Z,82.09
2023-01-08T00:48:53.876Z,81.99
2023-01-08T00:49:53.875Z,81.51
2023-01-08T00:50:53.879Z,81.92
2023-01-08T00:51:53.867Z,81.71
2023-01-08T00:52:53.877Z,81.68
2023-01-08T00:53:53.938Z,81.41
2023-01-08T00:54:53.838Z,81.37
2023-01-08T00:55:53.835Z,81.48
2023-01-08T00:56:53.816Z,81.27
2023-01-08T00:57:53.823Z,81.37
2023-01-08T00:58:53.799Z,81.48
2023-01-08T00:59:53.791Z,81.37
2023-01-08T01:00:53.930Z,81.16
2023-01-08T01:01:53.942Z,80.96
2023-01-08T01:02:53.771Z,80.96
2023-01-08T01:03:53.807Z,81.06
2023-01-08T01:04:53.755Z,80.82
2023-01-08T01:05:53.757Z,81.06
2023-01-08T01:06:53.741Z,80.82
2023-01-08T01:09:00.905Z,80.82
2023-01-08T01:10:00.777Z,81.13
2023-01-08T01:11:00.771Z,81.02
2023-01-08T01:12:01.442Z,81.16
2023-01-08T01:13:00.749Z,81.02
2023-01-08T01:14:00.745Z,81.48
2023-01-08T01:15:00.764Z,81.57
2023-01-08T01:16:00.725Z,81.43
2023-01-08T01:17:00.806Z,81.64
2023-01-08T01:18:00.710Z,81.54
2023-01-08T01:19:00.702Z,81.43
2023-01-08T01:20:00.712Z,81.34
2023-01-08T01:21:00.691Z,81.54
2023-01-08T01:22:00.682Z,81.54
2023-01-08T01:23:00.669Z,81.48
2023-01-08T01:24:00.656Z,81.64
2023-01-08T01:25:00.761Z,81.64
2023-01-08T01:26:00.637Z,81.54
2023-01-08T01:27:00.635Z,81.64
2023-01-08T01:28:00.623Z,81.43
2023-01-08T01:29:01.708Z,81.64
2023-01-08T01:30:01.728Z,81.43
2023-01-08T01:31:01.740Z,81.34
2023-01-08T01:32:01.705Z,81.40
2023-01-08T01:33:01.684Z,81.20
2023-01-08T01:34:01.706Z,81.23
2023-01-08T01:35:01.696Z,81.34
2023-01-08T01:36:01.667Z,80.99
2023-01-08T01:38:08.984Z,81.64
2023-01-08T01:39:08.981Z,81.64
2023-01-08T01:40:09.077Z,81.43
2023-01-08T01:41:10.064Z,81.54
2023-01-08T01:42:10.049Z,81.60
2023-01-08T01:43:10.040Z,81.20
2023-01-08T01:44:10.043Z,81.43
2023-01-08T01:45:10.043Z,80.92
2023-01-08T01:46:10.072Z,81.09
2023-01-08T01:47:10.026Z,81.09
2023-01-08T01:48:10.022Z,80.99
2023-01-08T01:49:09.992Z,81.09
2023-01-08T01:50:09.997Z,81.20
2023-01-08T01:51:09.982Z,80.88
2023-01-08T01:52:09.976Z,81.50
2023-01-08T01:53:09.962Z,81.29
2023-01-08T01:54:09.961Z,81.50
2023-01-08T01:55:09.955Z,81.40
2023-01-08T01:56:10.057Z,81.60
2023-01-08T01:57:09.943Z,81.60
2023-01-08T01:58:09.937Z,81.50
2023-01-08T01:59:09.915Z,81.50
2023-01-08T02:00:09.903Z,81.40
2023-01-08T02:01:10.010Z,81.60
2023-01-08T02:02:10.053Z,81.50
2023-01-08T02:03:09.888Z,81.40
2023-01-08T02:04:09.903Z,81.50
2023-01-08T02:05:09.869Z,81.60
2023-01-08T02:06:09.861Z,81.60
2023-01-08T02:07:09.876Z,81.60
2023-01-08T02:08:09.848Z,81.71
2023-01-08T02:09:09.847Z,81.60
2023-01-08T02:10:09.834Z,81.60
2023-01-08T02:11:09.824Z,81.81
2023-01-08T02:12:09.955Z,81.81
2023-01-08T02:13:09.812Z,81.81
2023-01-08T02:14:09.807Z,81.50
2023-01-08T02:15:09.817Z,81.91
2023-01-08T02:16:09.797Z,82.32
2023-01-08T02:17:09.788Z,82.32
2023-01-08T02:18:09.781Z,82.32
2023-01-08T02:19:09.764Z,82.01
2023-01-08T02:20:09.769Z,82.22
2023-01-08T02:21:09.757Z,82.22
2023-01-08T02:22:09.754Z,82.01
2023-01-08T02:23:09.741Z,82.22
2023-01-08T02:24:09.727Z,82.73
2023-01-08T02:25:09.719Z,82.53
2023-01-08T02:26:09.714Z,82.93
2023-01-08T02:27:09.706Z,82.87
2023-01-08T02:28:09.703Z,82.83
2023-01-08T02:29:09.706Z,82.87
2023-01-08T02:30:09.683Z,83.28
2023-01-08T02:31:09.726Z,83.45
2023-01-08T02:32:09.669Z,83.59
2023-01-08T02:33:09.668Z,84.47
2023-01-08T02:34:09.656Z,84.31
2023-01-08T02:35:09.648Z,84.41
2023-01-08T02:36:09.630Z,84.27
2023-01-08T02:37:09.624Z,84.00
2023-01-08T02:38:12.466Z,83.86
2023-01-08T02:39:09.614Z,84.37
2023-01-08T02:40:09.602Z,84.06
2023-01-08T02:41:09.592Z,84.06
2023-01-08T02:42:09.582Z,84.20
2023-01-08T02:43:09.578Z,84.37
2023-01-08T02:44:09.671Z,83.90
2023-01-08T02:45:09.570Z,84.68
2023-01-08T02:46:10.624Z,84.37
2023-01-08T02:48:16.900Z,84.47
2023-01-08T02:49:16.903Z,84.17
2023-01-08T02:50:16.901Z,84.06
2023-01-08T02:51:16.885Z,83.96
2023-01-08T02:52:16.881Z,84.27
2023-01-08T02:53:16.873Z,84.72
2023-01-08T02:54:16.917Z,84.68
2023-01-08T02:55:16.860Z,84.47
2023-01-08T02:56:17.955Z,83.96
2023-01-08T02:57:17.933Z,84.27
2023-01-08T02:58:17.922Z,84.99
2023-01-08T02:59:18.029Z,84.78
2023-01-08T03:00:17.905Z,85.09
2023-01-08T03:01:18.017Z,84.88
2023-01-08T03:02:17.965Z,85.09
2023-01-08T03:03:17.890Z,85.80
2023-01-08T03:04:18.941Z,86.11
2023-01-08T03:05:17.868Z,85.71
2023-01-08T03:06:17.852Z,85.50
2023-01-08T03:07:17.843Z,85.71
2023-01-08T03:08:17.836Z,85.66
2023-01-08T03:09:17.832Z,86.01
2023-01-08T03:10:17.831Z,85.50
2023-01-08T03:11:17.818Z,85.39
2023-01-08T03:12:17.817Z,86.01
2023-01-08T03:13:17.794Z,86.01
2023-01-08T03:14:17.787Z,86.11
2023-01-08T03:15:17.894Z,86.42
2023-01-08T03:16:17.816Z,86.22
2023-01-08T03:17:17.780Z,86.22
2023-01-08T03:18:17.753Z,86.01
2023-01-08T03:19:17.757Z,85.80
2023-01-08T03:20:17.747Z,85.91
2023-01-08T03:21:18.350Z,85.91
2023-01-08T03:22:18.330Z,86.01
2023-01-08T03:23:17.716Z,85.97
2023-01-08T03:24:17.712Z,85.87
2023-01-08T03:25:17.710Z,85.91
2023-01-08T03:26:17.751Z,85.97
2023-01-08T03:27:17.688Z,86.22
2023-01-08T03:28:17.678Z,85.97
2023-01-08T03:29:18.273Z,85.91
2023-01-08T03:30:17.770Z,85.91
2023-01-08T03:31:17.770Z,86.11
2023-01-08T03:32:17.647Z,85.97
2023-01-08T03:33:17.648Z,85.97
2023-01-08T03:34:17.634Z,85.97
2023-01-08T03:35:18.641Z,85.97
2023-01-08T03:36:17.621Z,85.87
2023-01-08T03:37:17.609Z,85.87
2023-01-08T03:38:17.611Z,86.01
2023-01-08T03:39:17.593Z,85.77
2023-01-08T03:40:17.608Z,85.97
2023-01-08T03:41:17.575Z,86.28
2023-01-08T03:42:17.568Z,86.63
2023-01-08T03:43:17.577Z,86.48
2023-01-08T03:44:17.552Z,86.83
2023-01-08T03:45:17.548Z,86.52
2023-01-08T03:46:17.570Z,86.52
2023-01-08T03:47:17.631Z,86.83
2023-01-08T03:48:17.517Z,87.04
2023-01-08T03:49:17.510Z,86.93
2023-01-08T03:50:17.509Z,87.24
2023-01-08T03:51:17.493Z,86.93
2023-01-08T03:52:17.487Z,87.24
2023-01-08T03:53:17.490Z,86.93
2023-01-08T03:54:17.531Z,86.93
2023-01-08T03:55:17.476Z,86.83
2023-01-08T03:56:17.670Z,87.04
2023-01-08T03:57:17.526Z,86.83
2023-01-08T03:58:17.452Z,87.04
2023-01-08T03:59:17.531Z,87.24
2023-01-08T04:00:18.213Z,87.04
2023-01-08T04:01:18.533Z,87.24
2023-01-08T04:02:17.619Z,87.04
2023-01-08T04:03:17.521Z,87.04
2023-01-08T04:04:17.564Z,87.04
2023-01-08T04:05:18.396Z,87.04
2023-01-08T04:06:17.380Z,88.06
2023-01-08T04:07:17.379Z,88.06
2023-01-08T04:08:17.380Z,87.85
2023-01-08T04:09:17.359Z,88.10
2023-01-08T04:10:17.395Z,88.31
2023-01-08T04:11:17.351Z,88.00
2023-01-08T04:12:17.350Z,88.10
2023-01-08T04:13:17.355Z,87.76
2023-01-08T04:14:17.338Z,87.90
2023-01-08T04:15:17.323Z,87.85
2023-01-08T04:16:17.385Z,87.96
2023-01-08T04:17:17.310Z,88.10
2023-01-08T04:18:17.289Z,88.10
2023-01-08T04:19:17.378Z,88.41
2023-01-08T04:20:17.280Z,88.62
2023-01-08T04:21:17.286Z,88.51
2023-01-08T04:22:17.270Z,88.31
2023-01-08T04:23:17.299Z,88.41
2023-01-08T04:24:17.254Z,89.03
2023-01-08T04:25:17.238Z,89.03
2023-01-08T04:26:17.228Z,88.62
2023-01-08T04:27:17.383Z,88.41
2023-01-08T04:28:17.473Z,89.03
2023-01-08T04:29:17.236Z,88.82
2023-01-08T04:30:17.467Z,88.72
2023-01-08T04:31:17.230Z,89.03
2023-01-08T04:32:17.561Z,89.03
2023-01-08T04:33:17.351Z,89.03
2023-01-08T04:34:17.317Z,88.51
2023-01-08T04:35:17.674Z,89.03
2023-01-08T04:36:17.173Z,89.33
2023-01-08T04:37:17.138Z,89.27
2023-01-08T04:38:17.135Z,88.82
2023-01-08T04:39:17.128Z,88.96
2023-01-08T04:40:17.121Z,89.13
2023-01-08T04:41:17.126Z,89.54
2023-01-08T04:42:17.101Z,89.33
2023-01-08T04:43:17.093Z,89.23
2023-01-08T04:44:17.086Z,89.13
2023-01-08T04:45:17.086Z,89.33
2023-01-08T04:46:17.099Z,89.64
2023-01-08T04:47:17.066Z,89.43
2023-01-08T04:48:17.050Z,89.03
2023-01-08T04:49:17.054Z,89.75
2023-01-08T04:50:17.041Z,89.75
2023-01-08T04:51:17.125Z,89.54
2023-01-08T04:52:17.031Z,89.33
2023-01-08T04:53:17.018Z,89.75
2023-01-08T04:54:17.016Z,89.33
2023-01-08T04:55:17.007Z,89.58
2023-01-08T04:56:16.995Z,89.89
2023-01-08T04:57:16.988Z,89.99
2023-01-08T04:58:16.979Z,89.99
2023-01-08T04:59:16.969Z,90.46
2023-01-08T05:00:16.968Z,90.50
2023-01-08T05:01:17.107Z,89.99
2023-01-08T05:02:17.148Z,90.50
2023-01-08T05:03:17.849Z,90.71
2023-01-08T05:04:17.939Z,90.71
2023-01-08T05:05:16.929Z,90.81
2023-01-08T05:06:16.964Z,90.81
2023-01-08T05:07:16.916Z,90.81
2023-01-08T05:08:16.904Z,90.71
2023-01-08T05:09:17.244Z,90.34
2023-01-08T05:10:16.890Z,91.02
2023-01-08T05:11:16.875Z,90.81
2023-01-08T05:12:16.869Z,91.22
2023-01-08T05:13:16.854Z,91.42
2023-01-08T05:14:16.895Z,91.74
2023-01-08T05:15:16.993Z,91.78
2023-01-08T05:16:17.732Z,92.29
2023-01-08T05:17:16.832Z,92.40
2023-01-08T05:18:16.826Z,92.50
2023-01-08T05:19:16.817Z,92.50
2023-01-08T05:20:18.961Z,92.50
2023-01-08T05:21:16.813Z,92.70
2023-01-08T05:22:16.791Z,93.42
2023-01-08T05:23:16.873Z,93.21
2023-01-08T05:24:16.775Z,93.01
2023-01-08T05:25:16.757Z,93.36
2023-01-08T05:26:16.767Z,93.36
2023-01-08T05:27:16.756Z,93.77
2023-01-08T05:28:16.750Z,93.87
2023-01-08T05:29:16.729Z,93.46
2023-01-08T05:30:16.723Z,94.18
2023-01-08T05:31:16.814Z,94.18
2023-01-08T05:32:16.713Z,94.59
2023-01-08T05:33:16.704Z,94.49
2023-01-08T05:34:16.695Z,94.29
2023-01-08T05:35:16.694Z,94.29
2023-01-08T05:36:16.679Z,94.49
2023-01-08T05:37:16.673Z,94.18
2023-01-08T05:38:16.669Z,94.39
2023-01-08T05:39:16.759Z,94.70
2023-01-08T05:40:16.648Z,94.90
2023-01-08T05:41:16.638Z,95.21
2023-01-08T05:42:16.639Z,95.31
2023-01-08T05:43:16.631Z,95.56
2023-01-08T05:44:16.611Z,95.46
2023-01-08T05:45:16.619Z,95.46
2023-01-08T05:46:16.620Z,95.77
2023-01-08T05:47:16.600Z,95.46
2023-01-08T05:48:16.594Z,95.31
2023-01-08T05:49:17.053Z,95.15
2023-01-08T05:50:18.565Z,94.80
2023-01-08T05:51:17.309Z,94.84
2023-01-08T05:52:16.567Z,95.10
2023-01-08T05:53:16.552Z,95.42
2023-01-08T05:54:16.521Z,94.90
2023-01-08T05:55:17.622Z,95.05
2023-01-08T05:56:16.513Z,95.01
2023-01-08T05:57:16.514Z,94.80
2023-01-08T05:58:16.513Z,94.90
2023-01-08T05:59:16.494Z,95.15
2023-01-08T06:00:16.485Z,95.77
2023-01-08T06:01:16.593Z,95.87
2023-01-08T06:02:16.470Z,96.48
2023-01-08T06:03:16.460Z,96.33
2023-01-08T06:04:16.494Z,96.33
2023-01-08T06:05:16.444Z,96.22
2023-01-08T06:06:16.443Z,96.33
2023-01-08T06:07:16.441Z,96.39
2023-01-08T06:08:16.416Z,96.84
2023-01-08T06:09:16.414Z,96.43
2023-01-08T06:10:16.436Z,96.80
2023-01-08T06:11:16.497Z,96.84
2023-01-08T06:12:16.386Z,96.94
2023-01-08T06:13:16.391Z,97.25
2023-01-08T06:14:16.372Z,96.90
2023-01-08T06:15:16.420Z,96.73
2023-01-08T06:16:16.397Z,96.69
2023-01-08T06:17:16.376Z,96.69
2023-01-08T06:18:16.342Z,96.59
2023-01-08T06:19:16.348Z,96.18
2023-01-08T06:20:16.324Z,96.28
2023-01-08T06:21:16.321Z,96.48
2023-01-08T06:22:16.309Z,95.67
2023-01-08T06:23:17.309Z,96.18
2023-01-08T06:24:16.307Z,96.33
2023-01-08T06:25:16.290Z,96.22
2023-01-08T06:26:16.274Z,96.08
2023-01-08T06:27:16.387Z,96.18
2023-01-08T06:28:16.272Z,96.08
2023-01-08T06:29:16.255Z,96.08
2023-01-08T06:30:16.246Z,96.28
2023-01-08T06:31:16.320Z,96.28
2023-01-08T06:32:16.230Z,96.18
2023-01-08T06:33:16.363Z,96.48
2023-01-08T06:34:16.210Z,96.28
2023-01-08T06:35:16.274Z,96.55
2023-01-08T06:36:16.193Z,96.18
2023-01-08T06:37:16.188Z,95.52
2023-01-08T06:38:16.194Z,95.42
2023-01-08T06:39:16.182Z,96.39
2023-01-08T06:40:16.168Z,96.39
2023-01-08T06:41:16.160Z,96.39
2023-01-08T06:42:16.164Z,96.69
2023-01-08T06:43:16.255Z,96.39
2023-01-08T06:44:16.154Z,95.93
2023-01-08T06:45:16.140Z,96.39
2023-01-08T06:46:16.131Z,96.59
2023-01-08T06:47:16.124Z,96.59
2023-01-08T06:48:16.119Z,96.80
2023-01-08T06:49:16.108Z,96.08
2023-01-08T06:50:16.109Z,96.08
2023-01-08T06:51:16.083Z,96.34
2023-01-08T06:52:16.078Z,96.03
2023-01-08T06:53:16.064Z,96.39
2023-01-08T06:54:16.066Z,96.28
2023-01-08T06:55:16.062Z,96.59
2023-01-08T06:56:16.041Z,96.80
2023-01-08T06:57:16.040Z,96.65
2023-01-08T06:58:16.069Z,96.59
2023-01-08T06:59:16.118Z,97.20
2023-01-08T07:00:16.005Z,97.00
2023-01-08T07:01:16.298Z,96.59
2023-01-08T07:02:16.277Z,97.20
2023-01-08T07:03:16.978Z,97.10
2023-01-08T07:04:15.977Z,96.65
2023-01-08T07:05:15.974Z,96.44
2023-01-08T07:06:15.971Z,96.95
2023-01-08T07:07:15.960Z,96.95
2023-01-08T07:08:15.957Z,96.95
2023-01-08T07:09:15.937Z,97.16
2023-01-08T07:10:17.001Z,96.85
2023-01-08T07:11:15.941Z,96.95
2023-01-08T07:12:15.919Z,96.95
2023-01-08T07:13:15.898Z,96.95
2023-01-08T07:14:15.915Z,96.95
2023-01-08T07:15:16.006Z,96.85
2023-01-08T07:16:16.900Z,97.06
2023-01-08T07:17:16.827Z,96.75
2023-01-08T07:18:15.863Z,96.85
2023-01-08T07:19:15.858Z,96.85
2023-01-08T07:20:15.840Z,96.95
2023-01-08T07:21:15.834Z,96.85
2023-01-08T07:22:15.830Z,96.75
2023-01-08T07:23:15.833Z,96.75
2023-01-08T07:24:15.818Z,96.34
2023-01-08T07:25:15.809Z,96.90
2023-01-08T07:26:15.804Z,97.31
2023-01-08T07:27:15.788Z,97.47
2023-01-08T07:28:15.785Z,97.57
2023-01-08T07:29:15.771Z,97.78
2023-01-08T07:30:28.727Z,98.03
2023-01-08T07:31:17.901Z,98.24
2023-01-08T07:32:15.760Z,98.75
2023-01-08T07:33:15.740Z,98.75
2023-01-08T07:34:15.733Z,98.54
2023-01-08T07:35:15.730Z,98.54
2023-01-08T07:36:15.729Z,98.39
2023-01-08T07:37:15.710Z,98.50
2023-01-08T07:38:15.703Z,98.60
2023-01-08T07:39:15.733Z,98.29
2023-01-08T07:40:15.692Z,98.08
2023-01-08T07:41:15.688Z,98.50
2023-01-08T07:42:16.336Z,98.19
2023-01-08T07:43:16.335Z,98.50
2023-01-08T07:44:15.689Z,98.13
2023-01-08T07:45:15.685Z,98.50
2023-01-08T07:46:15.652Z,98.08
2023-01-08T07:47:15.737Z,98.65
2023-01-08T07:48:15.631Z,98.75
2023-01-08T07:49:15.615Z,98.33
2023-01-08T07:50:15.664Z,98.69
2023-01-08T07:51:15.604Z,99.10
2023-01-08T07:52:16.608Z,99.10
2023-01-08T07:53:15.586Z,99.26
2023-01-08T07:54:15.590Z,98.90
2023-01-08T07:55:15.568Z,98.96
2023-01-08T07:56:15.568Z,99.10
2023-01-08T07:57:15.558Z,98.96
2023-01-08T07:58:15.548Z,98.69
2023-01-08T07:59:15.537Z,98.33
2023-01-08T08:00:15.536Z,98.13
2023-01-08T08:01:15.584Z,98.54
2023-01-08T08:02:15.664Z,98.54
2023-01-08T08:03:15.697Z,98.33
2023-01-08T08:04:15.527Z,98.54
2023-01-08T08:05:16.341Z,98.33
2023-01-08T08:06:15.490Z,97.82
2023-01-08T08:07:15.480Z,97.62
2023-01-08T08:08:15.475Z,97.57
2023-01-08T08:09:15.459Z,97.47
2023-01-08T08:10:15.456Z,97.27
2023-01-08T08:11:15.450Z,97.57
2023-01-08T08:12:15.478Z,96.44
2023-01-08T08:13:15.429Z,97.16
2023-01-08T08:14:15.428Z,96.95
2023-01-08T08:15:15.424Z,96.75
2023-01-08T08:16:15.487Z,96.75
2023-01-08T08:17:15.392Z,96.55
2023-01-08T08:18:16.394Z,96.75
2023-01-08T08:19:15.497Z,96.85
2023-01-08T08:20:15.377Z,96.23
2023-01-08T08:21:15.379Z,96.14
2023-01-08T08:22:15.382Z,95.93
2023-01-08T08:23:15.352Z,96.03
2023-01-08T08:24:15.352Z,96.44
2023-01-08T08:25:15.466Z,96.14
2023-01-08T08:26:15.335Z,95.93
2023-01-08T08:27:15.320Z,96.14
2023-01-08T08:28:15.334Z,96.14
2023-01-08T08:29:15.313Z,96.23
2023-01-08T08:30:15.314Z,96.30
2023-01-08T08:31:15.326Z,96.44
2023-01-08T08:32:15.280Z,96.44
2023-01-08T08:33:15.277Z,96.44
2023-01-08T08:34:15.277Z,96.23
2023-01-08T08:35:15.434Z,96.34
2023-01-08T08:36:15.845Z,96.23
2023-01-08T08:37:15.250Z,96.23
2023-01-08T08:38:15.238Z,96.23
2023-01-08T08:39:15.225Z,96.50
2023-01-08T08:40:15.218Z,96.30
2023-01-08T08:41:15.220Z,96.19
2023-01-08T08:42:15.209Z,95.98
2023-01-08T08:43:15.195Z,95.98
2023-01-08T08:44:15.182Z,96.50
2023-01-08T08:45:15.182Z,95.98
2023-01-08T08:46:15.183Z,96.40
2023-01-08T08:47:16.183Z,96.34
2023-01-08T08:48:15.157Z,96.50
2023-01-08T08:49:15.151Z,95.57
2023-01-08T08:50:15.148Z,95.17
2023-01-08T08:51:15.222Z,95.17
2023-01-08T08:52:15.122Z,95.47
2023-01-08T08:53:15.118Z,94.96
2023-01-08T08:54:16.138Z,95.27
2023-01-08T08:55:15.106Z,95.17
2023-01-08T08:56:15.093Z,95.06
2023-01-08T08:57:15.092Z,95.37
2023-01-08T08:58:15.081Z,95.47
2023-01-08T08:59:15.063Z,95.17
2023-01-08T09:00:15.064Z,94.65
2023-01-08T09:01:15.182Z,94.55
2023-01-08T09:02:15.273Z,94.65
2023-01-08T09:03:15.187Z,94.76
2023-01-08T09:04:15.036Z,94.96
2023-01-08T09:05:15.015Z,94.71
2023-01-08T09:06:15.034Z,94.24
2023-01-08T09:07:16.027Z,94.96
2023-01-08T09:08:14.988Z,94.96
2023-01-08T09:09:14.980Z,94.71
2023-01-08T09:10:14.979Z,94.85
2023-01-08T09:11:14.967Z,94.65
2023-01-08T09:12:14.973Z,94.76
2023-01-08T09:13:14.948Z,94.34
2023-01-08T09:14:14.943Z,94.45
2023-01-08T09:15:14.936Z,94.45
2023-01-08T09:16:14.987Z,94.45
2023-01-08T09:17:14.915Z,94.34
2023-01-08T09:18:16.080Z,94.34
2023-01-08T09:19:15.901Z,94.34
2023-01-08T09:20:14.898Z,95.06
2023-01-08T09:21:15.444Z,95.06
2023-01-08T09:22:14.905Z,95.27
2023-01-08T09:23:14.972Z,95.42
2023-01-08T09:24:14.878Z,95.57
2023-01-08T09:25:14.854Z,94.96
2023-01-08T09:26:14.864Z,95.17
2023-01-08T09:27:15.365Z,95.06
2023-01-08T09:28:14.827Z,95.17
2023-01-08T09:29:14.826Z,95.17
2023-01-08T09:30:14.834Z,95.27
2023-01-08T09:31:14.845Z,95.17
2023-01-08T09:32:14.812Z,95.06
2023-01-08T09:33:14.804Z,95.17
2023-01-08T09:34:15.433Z,95.17
2023-01-08T09:35:14.776Z,94.76
2023-01-08T09:36:14.771Z,94.76
2023-01-08T09:37:14.762Z,94.76
2023-01-08T09:38:14.765Z,94.51
2023-01-08T09:39:14.843Z,94.24
2023-01-08T09:40:14.740Z,94.51
2023-01-08T09:41:14.729Z,94.51
2023-01-08T09:42:14.733Z,94.34
2023-01-08T09:43:14.711Z,94.76
2023-01-08T09:44:14.706Z,94.76
2023-01-08T09:45:14.705Z,94.76
2023-01-08T09:46:14.700Z,93.79
2023-01-08T09:47:14.694Z,93.93
2023-01-08T09:48:14.675Z,93.48
2023-01-08T09:49:14.696Z,93.79
2023-01-08T09:50:14.660Z,93.07
2023-01-08T09:51:14.657Z,92.86
2023-01-08T09:52:14.659Z,93.32
2023-01-08T09:53:14.641Z,93.73
2023-01-08T09:54:14.631Z,93.79
2023-01-08T09:55:14.737Z,93.89
2023-01-08T09:56:14.615Z,93.59
2023-01-08T09:57:14.615Z,93.68
2023-01-08T09:58:14.602Z,93.38
2023-01-08T09:59:14.638Z,93.27
2023-01-08T10:00:14.592Z,92.76
2023-01-08T10:01:15.156Z,93.48
2023-01-08T10:02:14.721Z,93.63
2023-01-08T10:03:14.560Z,93.99
2023-01-08T10:04:14.562Z,94.30
2023-01-08T10:05:14.567Z,94.04
2023-01-08T10:06:14.556Z,94.10
2023-01-08T10:07:14.551Z,93.59
2023-01-08T10:08:14.522Z,94.96
2023-01-08T10:09:14.545Z,94.30
2023-01-08T10:10:14.511Z,94.34
2023-01-08T10:11:14.603Z,94.65
2023-01-08T10:12:14.494Z,94.61
2023-01-08T10:13:14.483Z,94.30
2023-01-08T10:14:14.482Z,93.79
2023-01-08T10:15:14.469Z,93.52
2023-01-08T10:16:14.487Z,93.89
2023-01-08T10:17:14.456Z,93.59
2023-01-08T10:18:14.471Z,93.21
2023-01-08T10:19:14.440Z,93.79
2023-01-08T10:20:14.437Z,93.17
2023-01-08T10:21:14.438Z,93.48
2023-01-08T10:22:14.430Z,93.79
2023-01-08T10:23:14.412Z,93.59
2023-01-08T10:24:14.401Z,93.79
2023-01-08T10:25:14.403Z,93.38
2023-01-08T10:26:14.394Z,93.48
2023-01-08T10:27:14.488Z,92.66
2023-01-08T10:28:14.369Z,92.93
2023-01-08T10:29:14.374Z,93.13
2023-01-08T10:30:14.366Z,92.86
2023-01-08T10:31:14.361Z,93.23
2023-01-08T10:32:14.341Z,93.23
2023-01-08T10:33:14.338Z,93.13
2023-01-08T10:34:14.327Z,93.13
2023-01-08T10:35:14.314Z,92.21
2023-01-08T10:36:14.337Z,93.33
2023-01-08T10:37:14.326Z,92.66
2023-01-08T10:38:14.297Z,92.41
2023-01-08T10:39:14.286Z,92.16
2023-01-08T10:40:14.874Z,92.16
2023-01-08T10:41:14.266Z,91.75
2023-01-08T10:42:14.255Z,91.44
2023-01-08T10:43:14.252Z,91.91
2023-01-08T10:44:14.243Z,91.75
2023-01-08T10:45:14.286Z,91.90
2023-01-08T10:46:14.240Z,91.55
2023-01-08T10:47:14.224Z,91.24
2023-01-08T10:48:14.203Z,91.49
2023-01-08T10:49:14.206Z,91.35
2023-01-08T10:50:14.195Z,91.28
2023-01-08T10:51:14.188Z,91.03
2023-01-08T10:52:14.177Z,91.14
2023-01-08T10:53:14.169Z,91.90
2023-01-08T10:54:14.181Z,91.44
2023-01-08T10:55:14.159Z,91.49
2023-01-08T10:56:14.150Z,91.69
2023-01-08T10:57:14.137Z,91.65
2023-01-08T10:58:14.134Z,91.69
2023-01-08T10:59:14.140Z,91.24
2023-01-08T11:00:14.117Z,91.03
2023-01-08T11:01:14.216Z,91.44
2023-01-08T11:02:14.197Z,90.52
2023-01-08T11:03:14.098Z,90.83
2023-01-08T11:04:14.086Z,91.03
2023-01-08T11:05:14.076Z,91.03
2023-01-08T11:06:14.073Z,90.93
2023-01-08T11:07:14.063Z,91.14
2023-01-08T11:08:14.052Z,91.03
2023-01-08T11:10:20.816Z,90.48
2023-01-08T11:11:20.807Z,90.48
2023-01-08T11:12:20.807Z,90.17
2023-01-08T11:13:21.890Z,90.17
2023-01-08T11:14:21.886Z,89.97
2023-01-08T11:15:21.873Z,90.42
2023-01-08T11:16:21.893Z,90.48
2023-01-08T11:17:21.853Z,89.97
2023-01-08T11:18:21.856Z,90.48
2023-01-08T11:19:21.844Z,89.76
2023-01-08T11:20:21.833Z,90.32
2023-01-08T11:21:21.830Z,90.17
2023-01-08T11:22:21.812Z,90.42
2023-01-08T11:23:21.808Z,90.11
2023-01-08T11:24:21.794Z,90.07
2023-01-08T11:25:21.808Z,90.28
2023-01-08T11:26:21.787Z,89.76
2023-01-08T11:27:21.767Z,89.76
2023-01-08T11:28:21.757Z,89.45
2023-01-08T11:29:21.792Z,89.36
2023-01-08T11:30:21.829Z,88.84
2023-01-08T11:31:21.789Z,89.04
2023-01-08T11:32:21.739Z,89.50
2023-01-08T11:33:21.722Z,89.25
2023-01-08T11:34:21.709Z,89.15
2023-01-08T11:35:21.706Z,89.04
2023-01-08T11:36:21.693Z,89.15
2023-01-08T11:37:21.692Z,89.45
2023-01-08T11:38:21.675Z,89.45
2023-01-08T11:39:21.685Z,89.25
2023-01-08T11:40:21.666Z,89.15
2023-01-08T11:41:21.663Z,89.04
2023-01-08T11:42:21.651Z,88.94
2023-01-08T11:43:21.642Z,88.84
2023-01-08T11:44:21.633Z,88.39
2023-01-08T11:45:22.690Z,88.94
2023-01-08T11:46:21.623Z,88.94
2023-01-08T11:47:21.617Z,89.25
2023-01-08T11:48:21.604Z,89.56
2023-01-08T11:49:21.599Z,89.29
2023-01-08T11:50:21.588Z,88.94
2023-01-08T11:51:21.599Z,89.45
2023-01-08T11:52:21.578Z,89.36
2023-01-08T11:53:21.571Z,89.76
2023-01-08T11:54:21.560Z,89.45
2023-01-08T11:55:21.549Z,88.94
2023-01-08T11:56:21.551Z,88.84
2023-01-08T11:57:21.528Z,88.84
2023-01-08T11:58:21.534Z,89.42
2023-01-08T11:59:21.520Z,88.74
2023-01-08T12:00:21.535Z,88.94
2023-01-08T12:01:21.542Z,89.04
2023-01-08T12:02:21.683Z,89.25
2023-01-08T12:03:21.530Z,88.94
2023-01-08T12:04:21.484Z,88.94
2023-01-08T12:05:21.467Z,88.84
2023-01-08T12:06:21.458Z,88.90
2023-01-08T12:07:21.449Z,88.59
2023-01-08T12:08:21.458Z,88.53
2023-01-08T12:09:21.441Z,88.33
2023-01-08T12:10:21.470Z,88.23
2023-01-08T12:11:21.425Z,88.53
2023-01-08T12:12:21.407Z,88.39
2023-01-08T12:13:21.409Z,88.64
2023-01-08T12:14:22.273Z,88.49
2023-01-08T12:15:21.403Z,88.18
2023-01-08T12:16:21.442Z,88.49
2023-01-08T12:17:23.514Z,87.88
2023-01-08T12:18:21.366Z,88.18
2023-01-08T12:19:21.354Z,87.98
2023-01-08T12:20:21.445Z,87.67
2023-01-08T12:21:21.353Z,87.84
2023-01-08T12:22:21.325Z,87.32
2023-01-08T12:23:21.329Z,87.32
2023-01-08T12:24:21.313Z,86.40
2023-01-08T12:25:21.299Z,86.20
2023-01-08T12:26:22.774Z,86.51
2023-01-08T12:27:25.967Z,86.51
2023-01-08T12:28:22.282Z,85.89
2023-01-08T12:29:21.265Z,85.89
2023-01-08T12:30:21.389Z,85.55
2023-01-08T12:31:21.280Z,84.72
2023-01-08T12:32:21.315Z,85.14
2023-01-08T12:33:21.228Z,84.72
2023-01-08T12:34:21.236Z,84.93
2023-01-08T12:35:21.215Z,84.28
2023-01-08T12:36:21.209Z,83.97
2023-01-08T12:37:21.213Z,83.97
2023-01-08T12:38:21.191Z,84.01
2023-01-08T12:39:21.192Z,83.76
2023-01-08T12:40:21.203Z,84.69
2023-01-08T12:41:21.167Z,83.87
2023-01-08T12:42:21.163Z,84.42
2023-01-08T12:43:21.153Z,84.42
2023-01-08T12:44:21.140Z,83.60
2023-01-08T12:45:21.127Z,83.50
2023-01-08T12:46:22.130Z,84.07
2023-01-08T12:47:21.142Z,84.28
2023-01-08T12:48:21.116Z,84.52
2023-01-08T12:49:21.107Z,84.01
2023-01-08T12:50:21.123Z,84.83
2023-01-08T12:51:21.123Z,85.24
2023-01-08T12:52:21.780Z,84.56
2023-01-08T12:53:21.082Z,84.97
2023-01-08T12:54:21.071Z,85.07
2023-01-08T12:55:21.056Z,85.28
2023-01-08T12:56:21.040Z,85.48
2023-01-08T12:57:21.035Z,85.69